Terminal Aerodrome Forecast
Issued by NWS

Home | Current Version | Previous Version | Graphics & Text | Print | Product List | Glossary On
Versions: 1 2 3 4 5 6 7 8 9 10 11 12 13 14 15 16 17 18 19 20 21 22 23 24 25 26 27 28 29 30 31 32 33
000
FTUS43 KABR 291600 AAA
TAFMBG
TAF AMD
KMBG 291606Z 2916/3012 32015G23KT P6SM BKN100
     FM291800 33014G22KT P6SM VCSH BKN050
     FM292100 36010KT P6SM BKN200
     FM292300 03006KT P6SM SKC=

USA.gov is the U.S. government's official web portal to all federal, state and local government web resources and services.